sensor_id;sensor_type;location;lat;lon;timestamp;pressure;altitude;pressure_sealevel;temperature;humidity
51123;BME280;37162;41.724;13.346;2022-11-04T00:01:31;96591.25;;;20.10;59.95
51123;BME280;37162;41.724;13.346;2022-11-04T00:03:57;96580.41;;;20.05;59.95
51123;BME280;37162;41.724;13.346;2022-11-04T00:06:23;96588.28;;;20.11;59.85
51123;BME280;37162;41.724;13.346;2022-11-04T00:08:52;96587.75;;;20.09;59.81
51123;BME280;37162;41.724;13.346;2022-11-04T00:11:19;96583.41;;;20.08;59.87
51123;BME280;37162;41.724;13.346;2022-11-04T00:14:04;96571.78;;;20.08;59.80
51123;BME280;37162;41.724;13.346;2022-11-04T00:16:30;96573.41;;;20.09;59.79
51123;BME280;37162;41.724;13.346;2022-11-04T00:19:14;96570.72;;;20.09;60.14
51123;BME280;37162;41.724;13.346;2022-11-04T00:21:39;96553.72;;;20.08;59.93
51123;BME280;37162;41.724;13.346;2022-11-04T00:24:23;96560.78;;;20.09;60.04
51123;BME280;37162;41.724;13.346;2022-11-04T00:27:19;96564.28;;;20.10;60.27
51123;BME280;37162;41.724;13.346;2022-11-04T00:30:06;96544.59;;;20.09;60.31
51123;BME280;37162;41.724;13.346;2022-11-04T00:32:33;96545.41;;;20.10;60.32
51123;BME280;37162;41.724;13.346;2022-11-04T00:35:17;96557.22;;;20.09;60.26
51123;BME280;37162;41.724;13.346;2022-11-04T00:37:44;96544.28;;;20.06;60.27
51123;BME280;37162;41.724;13.346;2022-11-04T00:40:12;96533.53;;;20.11;60.15
51123;BME280;37162;41.724;13.346;2022-11-04T00:42:38;96535.66;;;20.09;59.82
51123;BME280;37162;41.724;13.346;2022-11-04T00:45:04;96531.09;;;20.09;59.78
51123;BME280;37162;41.724;13.346;2022-11-04T00:47:30;96524.88;;;20.09;59.76
51123;BME280;37162;41.724;13.346;2022-11-04T00:49:55;96523.25;;;20.08;59.66
51123;BME280;37162;41.724;13.346;2022-11-04T00:52:21;96524.88;;;20.09;59.78
51123;BME280;37162;41.724;13.346;2022-11-04T00:54:46;96524.88;;;20.09;60.00
51123;BME280;37162;41.724;13.346;2022-11-04T00:57:12;96519.44;;;20.04;59.82
51123;BME280;37162;41.724;13.346;2022-11-04T00:59:38;96522.16;;;20.09;59.65
51123;BME280;37162;41.724;13.346;2022-11-04T01:02:04;96529.19;;;20.05;59.83
51123;BME280;37162;41.724;13.346;2022-11-04T01:04:30;96539.19;;;20.09;59.95
51123;BME280;37162;41.724;13.346;2022-11-04T01:06:55;96535.66;;;20.09;59.98
51123;BME280;37162;41.724;13.346;2022-11-04T01:09:21;96532.97;;;20.09;59.97
51123;BME280;37162;41.724;13.346;2022-11-04T01:11:46;96531.09;;;20.09;60.17
51123;BME280;37162;41.724;13.346;2022-11-04T01:14:12;96532.97;;;20.09;60.21
51123;BME280;37162;41.724;13.346;2022-11-04T01:16:38;96540.00;;;20.10;60.20
51123;BME280;37162;41.724;13.346;2022-11-04T01:19:04;96519.25;;;20.10;60.30
51123;BME280;37162;41.724;13.346;2022-11-04T01:21:30;96526.53;;;20.10;60.24
51123;BME280;37162;41.724;13.346;2022-11-04T01:23:55;96503.53;;;20.02;60.13
51123;BME280;37162;41.724;13.346;2022-11-04T01:26:23;96520.84;;;20.11;60.21
51123;BME280;37162;41.724;13.346;2022-11-04T01:28:50;96518.44;;;20.10;60.12
51123;BME280;37162;41.724;13.346;2022-11-04T01:31:18;96523.56;;;20.11;60.16
51123;BME280;37162;41.724;13.346;2022-11-04T01:33:48;96509.22;;;20.06;60.14
51123;BME280;37162;41.724;13.346;2022-11-04T01:36:13;96503.06;;;20.10;60.04
51123;BME280;37162;41.724;13.346;2022-11-04T01:38:39;96494.16;;;20.10;60.06
51123;BME280;37162;41.724;13.346;2022-11-04T01:41:06;96493.88;;;20.11;60.09
51123;BME280;37162;41.724;13.346;2022-11-04T01:43:53;96494.69;;;20.12;60.08
51123;BME280;37162;41.724;13.346;2022-11-04T01:49:30;96477.97;;;20.10;60.06
51123;BME280;37162;41.724;13.346;2022-11-04T01:52:06;96471.78;;;20.09;60.08
51123;BME280;37162;41.724;13.346;2022-11-04T01:54:33;96461.78;;;20.10;60.17
51123;BME280;37162;41.724;13.346;2022-11-04T01:57:02;96458.28;;;20.09;60.27
51123;BME280;37162;41.724;13.346;2022-11-04T01:59:33;96441.81;;;20.11;60.21
51123;BME280;37162;41.724;13.346;2022-11-04T02:01:59;96440.22;;;20.10;60.24
51123;BME280;37162;41.724;13.346;2022-11-04T02:04:25;96424.03;;;20.10;60.27
51123;BME280;37162;41.724;13.346;2022-11-04T02:06:59;96415.94;;;20.10;60.13
51123;BME280;37162;41.724;13.346;2022-11-04T02:09:29;96401.66;;;20.09;60.38
51123;BME280;37162;41.724;13.346;2022-11-04T02:11:55;96390.03;;;20.09;60.26
51123;BME280;37162;41.724;13.346;2022-11-04T02:14:40;96382.47;;;20.06;60.73
51123;BME280;37162;41.724;13.346;2022-11-04T02:30:49;96378.66;;;19.97;60.52
51123;BME280;37162;41.724;13.346;2022-11-04T02:36:01;96390.84;;;20.04;60.55
51123;BME280;37162;41.724;13.346;2022-11-04T02:38:50;96392.69;;;20.04;60.74
51123;BME280;37162;41.724;13.346;2022-11-04T02:42:14;96385.44;;;20.04;60.69
51123;BME280;37162;41.724;13.346;2022-11-04T02:47:01;96367.09;;;20.06;61.08
51123;BME280;37162;41.724;13.346;2022-11-04T02:54:46;96344.72;;;20.06;60.66
51123;BME280;37162;41.724;13.346;2022-11-04T02:57:21;96347.94;;;20.03;60.66
51123;BME280;37162;41.724;13.346;2022-11-04T03:00:02;96334.69;;;19.96;60.32
51123;BME280;37162;41.724;13.346;2022-11-04T03:02:37;96319.53;;;19.85;60.47
51123;BME280;37162;41.724;13.346;2022-11-04T03:05:05;96351.69;;;19.97;60.67
51123;BME280;37162;41.724;13.346;2022-11-04T03:07:35;96323.63;;;19.92;60.89
51123;BME280;37162;41.724;13.346;2022-11-04T03:10:24;96348.72;;;19.98;60.99
51123;BME280;37162;41.724;13.346;2022-11-04T03:13:01;96326.31;;;19.92;60.84
51123;BME280;37162;41.724;13.346;2022-11-04T03:15:30;96333.88;;;19.96;60.82
51123;BME280;37162;41.724;13.346;2022-11-04T03:18:05;96348.47;;;20.00;60.92
51123;BME280;37162;41.724;13.346;2022-11-04T03:20:35;96343.63;;;20.02;60.90
51123;BME280;37162;41.724;13.346;2022-11-04T03:23:03;96339.03;;;20.02;60.87
51123;BME280;37162;41.724;13.346;2022-11-04T03:25:34;96331.50;;;20.04;60.92
51123;BME280;37162;41.724;13.346;2022-11-04T03:31:01;96328.81;;;20.04;61.00
51123;BME280;37162;41.724;13.346;2022-11-04T03:33:39;96306.16;;;20.05;60.96
51123;BME280;37162;41.724;13.346;2022-11-04T03:36:08;96304.25;;;20.06;60.98
51123;BME280;37162;41.724;13.346;2022-11-04T03:38:37;96295.09;;;20.07;61.17
51123;BME280;37162;41.724;13.346;2022-11-04T03:41:19;96288.88;;;20.06;60.90
51123;BME280;37162;41.724;13.346;2022-11-04T03:43:48;96286.19;;;20.06;60.66
51123;BME280;37162;41.724;13.346;2022-11-04T03:46:14;96270.81;;;20.07;60.63
51123;BME280;37162;41.724;13.346;2022-11-04T03:48:39;96278.91;;;20.07;60.72
51123;BME280;37162;41.724;13.346;2022-11-04T03:51:07;96258.13;;;20.02;60.83
51123;BME280;37162;41.724;13.346;2022-11-04T03:53:33;96262.19;;;20.00;59.58
51123;BME280;37162;41.724;13.346;2022-11-04T03:59:24;96248.16;;;20.03;60.56
51123;BME280;37162;41.724;13.346;2022-11-04T04:02:22;96239.25;;;20.02;60.58
51123;BME280;37162;41.724;13.346;2022-11-04T04:05:16;96233.06;;;20.02;60.57
51123;BME280;37162;41.724;13.346;2022-11-04T04:07:48;96228.19;;;20.04;60.71
51123;BME280;37162;41.724;13.346;2022-11-04T04:10:27;96197.47;;;20.00;60.70
51123;BME280;37162;41.724;13.346;2022-11-04T04:15:44;96212.56;;;20.06;60.86
51123;BME280;37162;41.724;13.346;2022-11-04T04:18:13;96210.69;;;20.06;60.78
51123;BME280;37162;41.724;13.346;2022-11-04T04:20:39;96225.78;;;20.07;60.96
51123;BME280;37162;41.724;13.346;2022-11-04T04:23:27;96216.09;;;20.06;60.99
51123;BME280;37162;41.724;13.346;2022-11-04T04:26:13;96194.50;;;20.01;60.73
51123;BME280;37162;41.724;13.346;2022-11-04T04:28:59;96209.88;;;20.06;60.95
51123;BME280;37162;41.724;13.346;2022-11-04T04:31:28;96188.03;;;20.02;60.77
51123;BME280;37162;41.724;13.346;2022-11-04T04:34:14;96202.59;;;20.06;61.15
51123;BME280;37162;41.724;13.346;2022-11-04T04:36:52;96192.91;;;20.05;61.00
51123;BME280;37162;41.724;13.346;2022-11-04T04:39:21;96203.13;;;20.03;61.05
51123;BME280;37162;41.724;13.346;2022-11-04T04:42:07;96204.19;;;20.02;61.17
51123;BME280;37162;41.724;13.346;2022-11-04T04:44:51;96196.13;;;20.02;61.24
51123;BME280;37162;41.724;13.346;2022-11-04T04:50:01;96164.56;;;19.98;61.05
51123;BME280;37162;41.724;13.346;2022-11-04T04:52:30;96178.03;;;20.03;61.31
51123;BME280;37162;41.724;13.346;2022-11-04T04:54:56;96179.94;;;20.02;61.38
51123;BME280;37162;41.724;13.346;2022-11-04T04:57:21;96163.47;;;20.04;61.30
51123;BME280;37162;41.724;13.346;2022-11-04T04:59:47;96140.03;;;20.04;61.64
51123;BME280;37162;41.724;13.346;2022-11-04T05:02:12;96120.34;;;20.04;61.62
51123;BME280;37162;41.724;13.346;2022-11-04T05:04:38;96124.69;;;20.05;61.82
51123;BME280;37162;41.724;13.346;2022-11-04T05:07:03;96117.38;;;20.00;61.51
51123;BME280;37162;41.724;13.346;2022-11-04T05:09:30;96135.47;;;20.05;61.77
51123;BME280;37162;41.724;13.346;2022-11-04T05:11:56;96133.56;;;20.05;61.82
51123;BME280;37162;41.724;13.346;2022-11-04T05:14:21;96130.88;;;20.05;61.80
51123;BME280;37162;41.724;13.346;2022-11-04T05:16:47;96121.97;;;20.05;61.88
51123;BME280;37162;41.724;13.346;2022-11-04T05:19:12;96126.56;;;20.04;61.61
51123;BME280;37162;41.724;13.346;2022-11-04T05:21:38;96130.06;;;20.05;61.95
51123;BME280;37162;41.724;13.346;2022-11-04T05:24:03;96137.34;;;20.04;61.88
51123;BME280;37162;41.724;13.346;2022-11-04T05:26:29;96135.47;;;20.05;61.99
51123;BME280;37162;41.724;13.346;2022-11-04T05:28:54;96137.06;;;20.06;62.13
51123;BME280;37162;41.724;13.346;2022-11-04T05:31:19;96153.25;;;20.01;62.00
51123;BME280;37162;41.724;13.346;2022-11-04T05:33:45;96133.81;;;20.04;61.92
51123;BME280;37162;41.724;13.346;2022-11-04T05:36:12;96132.75;;;20.05;62.12
51123;BME280;37162;41.724;13.346;2022-11-04T05:38:39;96133.56;;;20.05;62.33
51123;BME280;37162;41.724;13.346;2022-11-04T05:41:05;96116.31;;;20.06;62.31
51123;BME280;37162;41.724;13.346;2022-11-04T05:43:32;96111.72;;;20.07;62.32
51123;BME280;37162;41.724;13.346;2022-11-04T05:45:58;96109.03;;;20.07;62.36
51123;BME280;37162;41.724;13.346;2022-11-04T05:48:24;96083.66;;;20.03;62.10
51123;BME280;37162;41.724;13.346;2022-11-04T05:50:50;96087.44;;;20.07;62.38
51123;BME280;37162;41.724;13.346;2022-11-04T05:53:15;96114.41;;;20.07;62.37
51123;BME280;37162;41.724;13.346;2022-11-04T05:55:41;96122.50;;;20.07;62.23
51123;BME280;37162;41.724;13.346;2022-11-04T05:58:06;96114.41;;;20.07;62.14
51123;BME280;37162;41.724;13.346;2022-11-04T06:00:31;96113.31;;;20.03;62.29
51123;BME280;37162;41.724;13.346;2022-11-04T06:02:57;96119.53;;;20.03;62.13
51123;BME280;37162;41.724;13.346;2022-11-04T06:05:23;96117.09;;;20.07;62.14
51123;BME280;37162;41.724;13.346;2022-11-04T06:07:48;96120.88;;;20.06;62.13
51123;BME280;37162;41.724;13.346;2022-11-04T06:10:14;96127.38;;;20.00;62.09
51123;BME280;37162;41.724;13.346;2022-11-04T06:12:39;96151.34;;;20.06;62.18
51123;BME280;37162;41.724;13.346;2022-11-04T06:15:05;96112.81;;;20.06;62.17
51123;BME280;37162;41.724;13.346;2022-11-04T06:17:31;96099.03;;;19.97;62.27
51123;BME280;37162;41.724;13.346;2022-11-04T06:19:56;96107.41;;;20.06;62.32
51123;BME280;37162;41.724;13.346;2022-11-04T06:22:21;96112.81;;;20.06;62.29
51123;BME280;37162;41.724;13.346;2022-11-04T06:24:47;96116.31;;;20.01;62.22
51123;BME280;37162;41.724;13.346;2022-11-04T06:27:13;96110.09;;;20.01;62.43
51123;BME280;37162;41.724;13.346;2022-11-04T06:29:38;96100.13;;;20.06;62.41
51123;BME280;37162;41.724;13.346;2022-11-04T06:32:09;96092.03;;;19.96;62.33
51123;BME280;37162;41.724;13.346;2022-11-04T06:34:35;96112.00;;;20.05;62.45
51123;BME280;37162;41.724;13.346;2022-11-04T06:37:02;96114.69;;;20.05;62.33
51123;BME280;37162;41.724;13.346;2022-11-04T06:39:27;96104.72;;;19.96;62.47
51123;BME280;37162;41.724;13.346;2022-11-04T06:41:52;96107.41;;;20.06;62.53
51123;BME280;37162;41.724;13.346;2022-11-04T06:44:18;96113.88;;;20.05;62.53
51123;BME280;37162;41.724;13.346;2022-11-04T06:46:43;96118.19;;;20.06;62.74
51123;BME280;37162;41.724;13.346;2022-11-04T06:49:20;96107.41;;;20.06;62.97
51123;BME280;37162;41.724;13.346;2022-11-04T06:51:47;96099.31;;;20.06;62.84
51123;BME280;37162;41.724;13.346;2022-11-04T06:54:13;96114.69;;;20.05;63.09
51123;BME280;37162;41.724;13.346;2022-11-04T06:56:39;96116.59;;;20.05;62.75
51123;BME280;37162;41.724;13.346;2022-11-04T06:59:06;96105.78;;;20.05;62.56
51123;BME280;37162;41.724;13.346;2022-11-04T07:01:34;96113.06;;;20.04;62.66
51123;BME280;37162;41.724;13.346;2022-11-04T07:04:00;96115.50;;;20.06;62.62
51123;BME280;37162;41.724;13.346;2022-11-04T07:06:27;96096.63;;;20.06;62.58
51123;BME280;37162;41.724;13.346;2022-11-04T07:08:56;96104.72;;;20.06;62.51
51123;BME280;37162;41.724;13.346;2022-11-04T07:11:22;96095.81;;;20.05;62.43
51123;BME280;37162;41.724;13.346;2022-11-04T07:13:49;96096.63;;;20.06;62.42
51123;BME280;37162;41.724;13.346;2022-11-04T07:16:15;96089.34;;;20.06;62.50
51123;BME280;37162;41.724;13.346;2022-11-04T07:18:41;96105.78;;;20.05;62.30
51123;BME280;37162;41.724;13.346;2022-11-04T07:21:07;96107.13;;;20.07;62.44
51123;BME280;37162;41.724;13.346;2022-11-04T07:23:32;96098.22;;;20.07;62.61
51123;BME280;37162;41.724;13.346;2022-11-04T07:26:00;96083.13;;;20.01;62.65
51123;BME280;37162;41.724;13.346;2022-11-04T07:28:28;96098.75;;;20.09;62.83
51123;BME280;37162;41.724;13.346;2022-11-04T07:30:55;96099.59;;;20.09;63.20
51123;BME280;37162;41.724;13.346;2022-11-04T07:33:22;96093.38;;;20.09;63.06
51123;BME280;37162;41.724;13.346;2022-11-04T07:35:48;96085.28;;;20.09;62.98
51123;BME280;37162;41.724;13.346;2022-11-04T07:38:13;96090.66;;;20.09;62.91
51123;BME280;37162;41.724;13.346;2022-11-04T07:40:38;96098.75;;;20.09;62.82
51123;BME280;37162;41.724;13.346;2022-11-04T07:43:04;96099.84;;;20.08;62.73
51123;BME280;37162;41.724;13.346;2022-11-04T07:45:31;96109.31;;;20.10;62.75
51123;BME280;37162;41.724;13.346;2022-11-04T07:47:57;96101.47;;;20.09;62.80
51123;BME280;37162;41.724;13.346;2022-11-04T07:50:22;96110.91;;;20.11;62.90
51123;BME280;37162;41.724;13.346;2022-11-04T07:52:48;96099.03;;;20.07;62.83
51123;BME280;37162;41.724;13.346;2022-11-04T07:55:15;96104.44;;;20.12;62.91
51123;BME280;37162;41.724;13.346;2022-11-04T07:57:46;96096.34;;;20.12;62.80
51123;BME280;37162;41.724;13.346;2022-11-04T08:00:13;96083.66;;;20.08;62.68
51123;BME280;37162;41.724;13.346;2022-11-04T08:02:42;96092.56;;;20.13;62.64
51123;BME280;37162;41.724;13.346;2022-11-04T08:05:12;96089.88;;;20.13;62.89
51123;BME280;37162;41.724;13.346;2022-11-04T08:07:37;96079.88;;;20.09;63.07
51123;BME280;37162;41.724;13.346;2022-11-04T08:10:03;96069.94;;;20.14;63.23
51123;BME280;37162;41.724;13.346;2022-11-04T08:12:29;96077.22;;;20.14;63.28
51123;BME280;37162;41.724;13.346;2022-11-04T08:14:57;96077.22;;;20.14;63.41
51123;BME280;37162;41.724;13.346;2022-11-04T08:17:24;96077.22;;;20.14;63.46
51123;BME280;37162;41.724;13.346;2022-11-04T08:19:49;96070.97;;;20.13;63.53
51123;BME280;37162;41.724;13.346;2022-11-04T08:22:15;96070.97;;;20.13;63.33
51123;BME280;37162;41.724;13.346;2022-11-04T08:24:40;96060.19;;;20.13;63.54
51123;BME280;37162;41.724;13.346;2022-11-04T08:27:06;96067.22;;;20.14;63.59
51123;BME280;37162;41.724;13.346;2022-11-04T08:29:33;96059.16;;;20.09;63.45
51123;BME280;37162;41.724;13.346;2022-11-04T08:31:59;96055.06;;;20.17;63.19
51123;BME280;37162;41.724;13.346;2022-11-04T08:34:24;96049.69;;;20.17;63.12
51123;BME280;37162;41.724;13.346;2022-11-04T08:36:49;96056.69;;;20.18;63.05
51123;BME280;37162;41.724;13.346;2022-11-04T08:39:17;96050.75;;;20.21;63.63
51123;BME280;37162;41.724;13.346;2022-11-04T08:41:44;96037.00;;;20.12;63.67
51123;BME280;37162;41.724;13.346;2022-11-04T08:44:11;96046.97;;;20.22;63.91
51123;BME280;37162;41.724;13.346;2022-11-04T08:46:38;96041.59;;;20.17;64.01
51123;BME280;37162;41.724;13.346;2022-11-04T08:49:04;96043.47;;;20.22;64.14
51123;BME280;37162;41.724;13.346;2022-11-04T08:51:31;96033.78;;;20.21;63.98
51123;BME280;37162;41.724;13.346;2022-11-04T08:53:57;96025.69;;;20.21;63.95
51123;BME280;37162;41.724;13.346;2022-11-04T08:56:32;96025.97;;;20.19;64.12
51123;BME280;37162;41.724;13.346;2022-11-04T08:58:58;96025.16;;;20.19;64.10
51123;BME280;37162;41.724;13.346;2022-11-04T09:01:25;96024.31;;;20.18;64.17
51123;BME280;37162;41.724;13.346;2022-11-04T09:03:52;96025.41;;;20.17;64.17
51123;BME280;37162;41.724;13.346;2022-11-04T09:06:23;96028.09;;;20.17;64.21
51123;BME280;37162;41.724;13.346;2022-11-04T09:08:49;96015.72;;;20.16;64.21
51123;BME280;37162;41.724;13.346;2022-11-04T09:11:15;96003.84;;;20.12;64.25
51123;BME280;37162;41.724;13.346;2022-11-04T09:13:41;96007.06;;;20.09;64.16
51123;BME280;37162;41.724;13.346;2022-11-04T09:16:09;96010.84;;;20.13;64.36
51123;BME280;37162;41.724;13.346;2022-11-04T09:18:35;96008.16;;;20.08;64.87
51123;BME280;37162;41.724;13.346;2022-11-04T09:21:01;96017.88;;;20.14;64.61
51123;BME280;37162;41.724;13.346;2022-11-04T09:23:28;96006.25;;;20.13;64.35
51123;BME280;37162;41.724;13.346;2022-11-04T09:25:53;95991.16;;;20.12;64.12
51123;BME280;37162;41.724;13.346;2022-11-04T09:28:21;95993.88;;;20.12;64.13
51123;BME280;37162;41.724;13.346;2022-11-04T09:30:47;95986.56;;;20.13;64.31
51123;BME280;37162;41.724;13.346;2022-11-04T09:33:15;95978.25;;;20.09;64.58
51123;BME280;37162;41.724;13.346;2022-11-04T09:35:41;95985.53;;;20.14;64.43
51123;BME280;37162;41.724;13.346;2022-11-04T09:38:07;95992.78;;;20.13;64.56
51123;BME280;37162;41.724;13.346;2022-11-04T09:40:34;95986.06;;;20.06;64.44
51123;BME280;37162;41.724;13.346;2022-11-04T09:45:30;96001.16;;;20.12;64.30
51123;BME280;37162;41.724;13.346;2022-11-04T09:47:59;96004.13;;;20.10;64.38
51123;BME280;37162;41.724;13.346;2022-11-04T09:50:37;96024.63;;;20.11;64.38
51123;BME280;37162;41.724;13.346;2022-11-04T09:53:45;95994.94;;;20.11;64.92
51123;BME280;37162;41.724;13.346;2022-11-04T09:56:24;96005.22;;;20.09;64.72
51123;BME280;37162;41.724;13.346;2022-11-04T09:58:52;96000.06;;;20.08;64.48
51123;BME280;37162;41.724;13.346;2022-11-04T10:20:50;95950.47;;;20.14;67.60
51123;BME280;37162;41.724;13.346;2022-11-04T10:23:18;95955.59;;;20.10;67.42
51123;BME280;37162;41.724;13.346;2022-11-04T10:28:41;95952.09;;;20.05;68.19
51123;BME280;37162;41.724;13.346;2022-11-04T10:31:14;95948.59;;;20.09;67.99
51123;BME280;37162;41.724;13.346;2022-11-04T10:33:43;95951.53;;;20.08;67.67
51123;BME280;37162;41.724;13.346;2022-11-04T10:36:11;95959.09;;;20.01;67.77
51123;BME280;37162;41.724;13.346;2022-11-04T10:41:24;95928.91;;;19.99;66.57
51123;BME280;37162;41.724;13.346;2022-11-04T10:43:53;95934.56;;;20.02;66.19
51123;BME280;37162;41.724;13.346;2022-11-04T10:46:48;95936.44;;;20.02;66.09
51123;BME280;37162;41.724;13.346;2022-11-04T10:49:47;95921.88;;;20.03;66.08
51123;BME280;37162;41.724;13.346;2022-11-04T10:52:14;95927.28;;;20.03;66.05
51123;BME280;37162;41.724;13.346;2022-11-04T10:54:42;95931.59;;;20.04;66.39
51123;BME280;37162;41.724;13.346;2022-11-04T10:57:09;95916.25;;;20.04;66.68
51123;BME280;37162;41.724;13.346;2022-11-04T11:02:10;95909.78;;;20.00;66.80
51123;BME280;37162;41.724;13.346;2022-11-04T11:04:37;95904.63;;;19.99;66.80
51123;BME280;37162;41.724;13.346;2022-11-04T11:07:09;95909.50;;;20.02;66.97
51123;BME280;37162;41.724;13.346;2022-11-04T11:12:18;95912.47;;;20.00;67.03
51123;BME280;37162;41.724;13.346;2022-11-04T11:14:48;95901.13;;;19.93;66.98
51123;BME280;37162;41.724;13.346;2022-11-04T11:20:05;95917.06;;;20.00;67.29
51123;BME280;37162;41.724;13.346;2022-11-04T11:22:44;95905.72;;;19.98;67.54
51123;BME280;37162;41.724;13.346;2022-11-04T11:25:48;95901.94;;;19.99;67.35
51123;BME280;37162;41.724;13.346;2022-11-04T11:28:23;95903.56;;;20.00;67.26
51123;BME280;37162;41.724;13.346;2022-11-04T11:30:56;95884.69;;;20.00;67.32
51123;BME280;37162;41.724;13.346;2022-11-04T11:33:58;95888.19;;;20.00;67.19
51123;BME280;37162;41.724;13.346;2022-11-04T11:36:27;95873.63;;;20.01;67.43
51123;BME280;37162;41.724;13.346;2022-11-04T11:38:58;95866.06;;;20.03;67.20
51123;BME280;37162;41.724;13.346;2022-11-04T11:41:28;95862.53;;;20.08;67.35
51123;BME280;37162;41.724;13.346;2022-11-04T11:44:00;95865.22;;;20.13;67.34
51123;BME280;37162;41.724;13.346;2022-11-04T11:46:29;95868.47;;;20.15;67.48
51123;BME280;37162;41.724;13.346;2022-11-04T11:49:02;95858.47;;;20.15;67.29
51123;BME280;37162;41.724;13.346;2022-11-04T11:51:37;95863.88;;;20.15;67.11
51123;BME280;37162;41.724;13.346;2022-11-04T11:54:35;95863.88;;;20.15;67.07
51123;BME280;37162;41.724;13.346;2022-11-04T11:57:07;95863.31;;;20.13;66.88
51123;BME280;37162;41.724;13.346;2022-11-04T11:59:51;95860.91;;;20.12;66.84
51123;BME280;37162;41.724;13.346;2022-11-04T12:02:26;95864.41;;;20.12;66.75
51123;BME280;37162;41.724;13.346;2022-11-04T12:04:54;95849.06;;;20.08;66.59
51123;BME280;37162;41.724;13.346;2022-11-04T12:13:27;95846.38;;;20.08;66.84
51123;BME280;37162;41.724;13.346;2022-11-04T12:19:10;95844.25;;;20.05;66.86
51123;BME280;37162;41.724;13.346;2022-11-04T12:27:18;95850.97;;;20.02;67.30
51123;BME280;37162;41.724;13.346;2022-11-04T12:30:08;95867.16;;;20.02;67.53
51123;BME280;37162;41.724;13.346;2022-11-04T12:33:05;95863.13;;;20.00;67.33
51123;BME280;37162;41.724;13.346;2022-11-04T12:43:39;95866.09;;;19.93;67.24
51123;BME280;37162;41.724;13.346;2022-11-04T12:57:04;95867.19;;;19.87;66.25
51123;BME280;37162;41.724;13.346;2022-11-04T13:00:29;95862.06;;;19.85;66.08
51123;BME280;37162;41.724;13.346;2022-11-04T13:07:54;95834.63;;;19.73;66.11
51123;BME280;37162;41.724;13.346;2022-11-04T13:10:32;95841.06;;;19.82;66.10
51123;BME280;37162;41.724;13.346;2022-11-04T13:13:03;95847.53;;;19.81;66.12
51123;BME280;37162;41.724;13.346;2022-11-04T13:15:39;95840.50;;;19.80;66.17
51123;BME280;37162;41.724;13.346;2022-11-04T13:18:12;95843.22;;;19.80;66.23
51123;BME280;37162;41.724;13.346;2022-11-04T13:20:41;95835.69;;;19.77;66.09
51123;BME280;37162;41.724;13.346;2022-11-04T13:23:16;95821.69;;;19.70;66.21
51123;BME280;37162;41.724;13.346;2022-11-04T13:25:45;95823.56;;;19.75;66.30
51123;BME280;37162;41.724;13.346;2022-11-04T13:28:14;95812.78;;;19.70;66.33
51123;BME280;37162;41.724;13.346;2022-11-04T13:30:56;95820.84;;;19.75;66.33
51123;BME280;37162;41.724;13.346;2022-11-04T13:33:46;95816.56;;;19.74;66.41
51123;BME280;37162;41.724;13.346;2022-11-04T13:36:48;95813.06;;;19.73;66.22
51123;BME280;37162;41.724;13.346;2022-11-04T13:39:27;95812.25;;;19.73;66.18
51123;BME280;37162;41.724;13.346;2022-11-04T13:44:55;95803.38;;;19.72;66.04
51123;BME280;37162;41.724;13.346;2022-11-04T13:47:42;95789.88;;;19.72;66.10
51123;BME280;37162;41.724;13.346;2022-11-04T13:50:35;95785.56;;;19.71;66.01
51123;BME280;37162;41.724;13.346;2022-11-04T13:53:03;95785.56;;;19.71;66.12
51123;BME280;37162;41.724;13.346;2022-11-04T13:55:30;95783.44;;;19.68;66.06
51123;BME280;37162;41.724;13.346;2022-11-04T13:58:04;95782.84;;;19.71;66.31
51123;BME280;37162;41.724;13.346;2022-11-04T14:00:32;95784.50;;;19.67;66.11
51123;BME280;37162;41.724;13.346;2022-11-04T14:03:00;95782.06;;;19.65;66.30
51123;BME280;37162;41.724;13.346;2022-11-04T14:05:45;95783.69;;;19.72;66.16
51123;BME280;37162;41.724;13.346;2022-11-04T14:08:15;95787.19;;;19.72;66.23
51123;BME280;37162;41.724;13.346;2022-11-04T14:16:10;95781.25;;;19.70;66.09
51123;BME280;37162;41.724;13.346;2022-11-04T14:23:44;95784.75;;;19.71;65.99
51123;BME280;37162;41.724;13.346;2022-11-04T14:26:13;95785.84;;;19.70;66.25
51123;BME280;37162;41.724;13.346;2022-11-04T14:28:43;95785.84;;;19.70;65.92
51123;BME280;37162;41.724;13.346;2022-11-04T14:31:11;95780.72;;;19.68;65.85
51123;BME280;37162;41.724;13.346;2022-11-04T14:44:24;95773.44;;;19.69;65.69
51123;BME280;37162;41.724;13.346;2022-11-04T14:46:54;95762.66;;;19.69;65.68
51123;BME280;37162;41.724;13.346;2022-11-04T14:49:50;95772.66;;;19.68;65.70
51123;BME280;37162;41.724;13.346;2022-11-04T14:52:23;95771.84;;;19.68;65.68
51123;BME280;37162;41.724;13.346;2022-11-04T14:55:04;95772.66;;;19.68;65.81
51123;BME280;37162;41.724;13.346;2022-11-04T14:57:52;95767.25;;;19.68;65.82
51123;BME280;37162;41.724;13.346;2022-11-04T15:05:55;95754.88;;;19.67;65.98
51123;BME280;37162;41.724;13.346;2022-11-04T15:16:20;95747.84;;;19.66;65.53
51123;BME280;37162;41.724;13.346;2022-11-04T15:18:47;95747.84;;;19.66;65.80
51123;BME280;37162;41.724;13.346;2022-11-04T15:21:13;95755.13;;;19.65;65.59
51123;BME280;37162;41.724;13.346;2022-11-04T15:23:48;95752.44;;;19.65;65.39
51123;BME280;37162;41.724;13.346;2022-11-04T15:26:27;95753.22;;;19.66;65.46
51123;BME280;37162;41.724;13.346;2022-11-04T15:28:54;95746.25;;;19.65;65.38
51123;BME280;37162;41.724;13.346;2022-11-04T15:31:25;95750.81;;;19.64;65.48
51123;BME280;37162;41.724;13.346;2022-11-04T15:34:00;95741.13;;;19.63;65.69
51123;BME280;37162;41.724;13.346;2022-11-04T15:36:29;95743.81;;;19.63;65.61
51123;BME280;37162;41.724;13.346;2022-11-04T15:39:04;95742.22;;;19.62;65.57
51123;BME280;37162;41.724;13.346;2022-11-04T15:41:32;95749.47;;;19.57;65.41